Time;durP1;ratioP1;P1;durP2;ratioP2;P2;SDS_P1;SDS_P2;PMS_P1;PMS_P2;Temp;Humidity;BMP_temperature;BMP_pressure;BME280_temperature;BME280_humidity;BME280_pressure;Samples;Min_cycle;Max_cycle;Signal;HPM_P1;HPM_P2
2023/03/01 00:00:37;;;;;;;20.13;16.17;;;2.10;99.90;;;;;;5032295;28;20068;-76
2023/03/01 00:03:03;;;;;;;18.20;15.65;;;1.40;99.90;;;;;;5014075;28;20436;-76
2023/03/01 00:05:29;;;;;;;22.40;15.40;;;1.20;99.90;;;;;;5032314;28;20484;-76
2023/03/01 00:07:55;;;;;;;16.45;13.50;;;1.30;99.90;;;;;;5015149;28;20089;-76
2023/03/01 00:10:20;;;;;;;15.88;12.90;;;1.30;99.90;;;;;;5032388;28;20493;-76
2023/03/01 00:12:46;;;;;;;16.90;15.10;;;1.40;99.90;;;;;;5032853;28;20053;-76
2023/03/01 00:15:12;;;;;;;19.77;16.88;;;1.50;99.90;;;;;;5015106;28;20083;-76
2023/03/01 00:17:37;;;;;;;21.33;14.60;;;2.40;99.90;;;;;;5032176;28;20057;-76
2023/03/01 00:20:08;;;;;;;16.30;13.23;;;1.40;99.90;;;;;;5032075;28;20068;-75
2023/03/01 00:22:33;;;;;;;20.55;16.85;;;1.40;99.90;;;;;;5032359;28;20056;-76
2023/03/01 00:24:59;;;;;;;19.33;14.98;;;1.50;99.90;;;;;;5014468;28;20045;-76
2023/03/01 00:27:25;;;;;;;18.45;16.25;;;1.60;99.90;;;;;;5032113;28;20139;-76
2023/03/01 00:29:51;;;;;;;20.63;16.83;;;1.40;99.90;;;;;;5032261;28;20454;-76
2023/03/01 00:32:17;;;;;;;18.52;15.48;;;1.30;99.90;;;;;;5032203;28;20045;-76
2023/03/01 00:34:53;;;;;;;20.08;15.68;;;1.30;99.90;;;;;;5032081;28;20051;-76
2023/03/01 00:37:20;;;;;;;22.00;17.75;;;1.40;99.90;;;;;;5032073;28;20065;-75
2023/03/01 00:39:46;;;;;;;16.88;14.98;;;1.20;99.90;;;;;;5032016;28;20072;-75
2023/03/01 00:42:12;;;;;;;20.25;16.13;;;1.10;99.90;;;;;;5032121;28;20474;-75
2023/03/01 00:44:38;;;;;;;18.38;15.95;;;1.10;99.90;;;;;;5032079;28;20042;-75
2023/03/01 00:47:03;;;;;;;21.13;16.52;;;1.60;99.90;;;;;;4998469;28;20475;-75
2023/03/01 00:49:29;;;;;;;19.63;16.88;;;1.00;99.90;;;;;;5032931;28;20077;-75
2023/03/01 00:51:55;;;;;;;21.25;16.10;;;1.00;99.90;;;;;;5032330;28;20428;-76
2023/03/01 00:54:20;;;;;;;22.05;17.40;;;0.90;99.90;;;;;;5032592;28;20065;-75
2023/03/01 00:56:46;;;;;;;20.63;17.88;;;1.60;99.90;;;;;;5032284;28;20106;-75
2023/03/01 00:59:12;;;;;;;23.42;18.02;;;0.80;99.90;;;;;;5015057;28;20085;-75
2023/03/01 01:01:37;;;;;;;19.65;17.27;;;0.80;99.90;;;;;;4998344;28;20053;-75
2023/03/01 01:04:09;;;;;;;22.38;17.98;;;0.70;99.90;;;;;;5032115;28;20042;-75
2023/03/01 01:06:46;;;;;;;22.38;19.05;;;2.30;99.90;;;;;;5032264;28;20041;-75
2023/03/01 01:09:18;;;;;;;20.35;16.67;;;0.60;99.90;;;;;;5032729;28;20444;-75
2023/03/01 01:11:49;;;;;;;21.40;16.83;;;1.40;99.90;;;;;;5032363;28;20045;-75
2023/03/01 01:14:16;;;;;;;25.30;19.27;;;0.60;99.90;;;;;;5033590;28;20049;-75
2023/03/01 01:16:42;;;;;;;22.63;17.55;;;0.70;99.90;;;;;;5001710;28;20057;-75
2023/03/01 01:19:10;;;;;;;22.48;17.02;;;0.60;99.90;;;;;;5035375;28;20052;-75
2023/03/01 01:21:36;;;;;;;27.17;19.27;;;0.80;99.90;;;;;;5035649;28;20104;-75
2023/03/01 01:24:03;;;;;;;45.97;24.23;;;0.60;99.90;;;;;;5017885;28;20085;-76
2023/03/01 01:26:31;;;;;;;34.05;22.58;;;0.50;99.90;;;;;;5017721;28;20107;-76
2023/03/01 01:28:58;;;;;;;30.20;22.52;;;0.50;99.90;;;;;;5035091;28;20046;-75
2023/03/01 01:31:24;;;;;;;37.30;21.13;;;0.60;99.90;;;;;;5035328;28;20053;-75
2023/03/01 01:33:51;;;;;;;39.53;21.25;;;0.60;99.90;;;;;;5035310;28;20048;-74
2023/03/01 01:36:17;;;;;;;37.47;21.50;;;0.40;99.90;;;;;;5035107;28;20045;-75
2023/03/01 01:38:43;;;;;;;30.17;21.30;;;1.10;99.90;;;;;;5035630;28;20140;-75
2023/03/01 01:41:13;;;;;;;26.15;22.33;;;0.50;99.90;;;;;;5035732;28;20466;-75
2023/03/01 01:43:45;;;;;;;27.38;20.75;;;0.50;99.90;;;;;;5017643;28;20049;-75
2023/03/01 01:46:14;;;;;;;27.88;22.38;;;0.50;99.90;;;;;;5035216;28;20080;-75
2023/03/01 01:48:51;;;;;;;28.63;22.08;;;0.50;99.90;;;;;;5035207;28;20081;-75
2023/03/01 01:51:23;;;;;;;24.05;20.80;;;1.70;99.90;;;;;;5035010;28;20056;-76
2023/03/01 01:53:55;;;;;;;23.50;20.08;;;1.00;99.90;;;;;;5017719;28;20045;-75
2023/03/01 01:56:23;;;;;;;20.88;18.02;;;0.80;99.90;;;;;;5035241;28;20072;-75
2023/03/01 01:58:50;;;;;;;19.63;16.15;;;0.40;99.90;;;;;;5016873;28;20049;-76
2023/03/01 02:01:16;;;;;;;23.73;18.80;;;0.30;99.90;;;;;;5034792;28;20096;-75
2023/03/01 02:03:44;;;;;;;21.52;18.58;;;0.30;99.90;;;;;;5034569;28;20080;-75
2023/03/01 02:06:10;;;;;;;21.63;18.27;;;0.70;99.90;;;;;;5034182;28;20053;-75
2023/03/01 02:08:38;;;;;;;23.98;19.08;;;0.50;99.90;;;;;;5034399;28;20140;-75
2023/03/01 02:11:04;;;;;;;21.48;18.98;;;1.00;99.90;;;;;;5016943;28;20099;-76
2023/03/01 02:13:34;;;;;;;21.63;17.13;;;0.30;99.90;;;;;;5034303;28;20045;-75
2023/03/01 02:16:03;;;;;;;22.05;18.38;;;0.30;99.90;;;;;;5034363;28;20045;-75
2023/03/01 02:18:29;;;;;;;22.13;17.90;;;0.40;99.90;;;;;;5034252;28;20528;-76
2023/03/01 02:21:30;;;;;;;22.10;19.00;;;1.40;99.90;;;;;;5034465;28;20049;-75
2023/03/01 02:23:57;;;;;;;21.77;18.70;;;0.40;99.90;;;;;;5034528;28;20099;-75
2023/03/01 02:26:40;;;;;;;21.20;17.13;;;0.70;99.90;;;;;;5033118;28;20060;-75
2023/03/01 02:29:06;;;;;;;21.55;17.52;;;0.20;99.90;;;;;;5034372;28;20081;-75
2023/03/01 02:31:41;;;;;;;18.73;14.75;;;0.40;99.90;;;;;;5016663;28;20390;-75
2023/03/01 02:34:26;;;;;;;20.92;16.75;;;1.00;99.90;;;;;;5034557;28;20042;-76
2023/03/01 02:37:04;;;;;;;20.20;17.63;;;0.30;99.90;;;;;;5034056;28;20052;-75
2023/03/01 02:39:41;;;;;;;19.85;17.08;;;0.20;99.90;;;;;;5033846;28;20053;-75
2023/03/01 02:42:12;;;;;;;23.23;18.77;;;0.10;99.90;;;;;;5033815;28;20048;-76
2023/03/01 02:44:38;;;;;;;18.58;14.50;;;0.00;99.90;;;;;;5016002;28;20057;-76
2023/03/01 02:47:05;;;;;;;22.67;18.05;;;0.20;99.90;;;;;;5033844;28;20060;-75
2023/03/01 02:49:34;;;;;;;22.05;17.25;;;0.10;99.90;;;;;;5033557;28;20477;-76
2023/03/01 02:52:23;;;;;;;21.92;16.23;;;0.70;99.90;;;;;;5033673;28;20087;-75
2023/03/01 02:55:01;;;;;;;23.45;18.58;;;0.10;99.90;;;;;;5033454;28;20050;-75
2023/03/01 02:57:29;;;;;;;27.85;18.92;;;0.00;99.90;;;;;;5033441;28;20071;-75
2023/03/01 02:59:57;;;;;;;28.25;18.98;;;1.00;99.90;;;;;;5016161;28;20459;-75
2023/03/01 03:02:38;;;;;;;26.67;18.67;;;-0.10;99.90;;;;;;5033362;28;20095;-75
2023/03/01 03:05:08;;;;;;;20.60;17.33;;;-0.20;99.90;;;;;;5033322;28;20088;-76
2023/03/01 03:07:35;;;;;;;20.05;16.73;;;-0.30;99.90;;;;;;5033259;28;20045;-76
2023/03/01 03:10:03;;;;;;;16.60;14.63;;;-0.30;99.90;;;;;;5033467;28;20049;-75
2023/03/01 03:12:29;;;;;;;15.82;12.90;;;-0.40;99.90;;;;;;5015553;28;20048;-75
2023/03/01 03:14:54;;;;;;;15.13;13.52;;;-0.20;99.90;;;;;;5033465;28;20049;-75
2023/03/01 03:17:20;;;;;;;17.70;14.02;;;-0.10;99.90;;;;;;5015470;28;20049;-75
2023/03/01 03:19:46;;;;;;;17.65;15.10;;;0.20;99.90;;;;;;5032690;28;20048;-75
2023/03/01 03:22:14;;;;;;;17.83;14.90;;;-0.10;99.90;;;;;;4999245;28;20558;-75
2023/03/01 03:24:40;;;;;;;20.50;15.95;;;0.30;99.90;;;;;;5032985;28;20049;-76
2023/03/01 03:27:08;;;;;;;19.38;14.85;;;0.50;99.90;;;;;;5032696;28;20060;-75
2023/03/01 03:29:34;;;;;;;18.60;15.43;;;0.00;99.90;;;;;;5032839;28;20095;-75
2023/03/01 03:32:00;;;;;;;24.75;18.25;;;-0.70;99.90;;;;;;5032916;28;20051;-75
2023/03/01 03:34:25;;;;;;;21.05;15.25;;;-0.60;99.90;;;;;;5015415;28;20128;-75
2023/03/01 03:36:56;;;;;;;22.08;16.80;;;-0.30;99.90;;;;;;5015814;28;20128;-76
2023/03/01 03:39:23;;;;;;;21.25;17.33;;;-0.20;99.90;;;;;;5032519;28;20057;-75
2023/03/01 03:41:49;;;;;;;24.27;17.85;;;-0.60;99.90;;;;;;5032783;28;20049;-75
2023/03/01 03:44:15;;;;;;;24.70;18.70;;;0.00;99.90;;;;;;5033008;28;20037;-75
2023/03/01 03:46:40;;;;;;;25.88;18.02;;;-0.70;99.90;;;;;;5032544;28;20049;-75
2023/03/01 03:49:06;;;;;;;24.95;19.15;;;-0.70;99.90;;;;;;5015578;28;20045;-76
2023/03/01 03:51:32;;;;;;;19.70;17.02;;;-0.40;99.90;;;;;;4999259;28;20124;-75
2023/03/01 03:53:57;;;;;;;22.77;17.92;;;1.00;99.90;;;;;;5015761;28;20046;-75
2023/03/01 03:56:25;;;;;;;21.83;16.92;;;0.40;99.90;;;;;;5032662;28;20160;-75
2023/03/01 03:58:52;;;;;;;23.33;17.02;;;-0.40;99.90;;;;;;5033374;28;20195;-75
2023/03/01 04:01:18;;;;;;;21.20;16.50;;;-0.20;99.90;;;;;;5032829;28;20050;-76
2023/03/01 04:03:46;;;;;;;24.77;18.23;;;-0.10;99.90;;;;;;5032598;28;20049;-75
2023/03/01 04:06:15;;;;;;;26.63;19.05;;;-0.80;99.90;;;;;;5032669;28;20371;-75
2023/03/01 04:08:41;;;;;;;26.25;18.80;;;0.70;99.90;;;;;;5032252;28;20572;-75
2023/03/01 04:13:52;;;;;;;31.35;22.70;;;-0.80;99.90;;;;;;5015346;28;20106;-75
2023/03/01 04:16:18;;;;;;;23.80;19.08;;;-0.80;99.90;;;;;;5015034;28;20049;-75
2023/03/01 04:18:44;;;;;;;24.92;19.63;;;-0.10;99.90;;;;;;5015057;28;20045;-75
2023/03/01 04:21:11;;;;;;;26.10;20.13;;;0.90;99.90;;;;;;5032386;28;20076;-75
2023/03/01 04:23:37;;;;;;;27.02;21.58;;;-0.50;99.90;;;;;;4998990;28;20052;-75
2023/03/01 04:26:03;;;;;;;25.83;19.63;;;-0.50;99.90;;;;;;5015413;28;20042;-75
2023/03/01 04:28:39;;;;;;;23.83;18.27;;;-0.60;99.90;;;;;;5032714;28;20128;-75
2023/03/01 04:31:15;;;;;;;26.85;19.50;;;-0.70;99.90;;;;;;5032710;28;20050;-75
2023/03/01 04:33:42;;;;;;;23.95;17.90;;;0.50;99.90;;;;;;5032791;28;20352;-75
2023/03/01 04:36:09;;;;;;;22.60;17.55;;;-0.50;99.90;;;;;;5032239;28;20083;-75
2023/03/01 04:38:38;;;;;;;21.42;17.17;;;-1.00;99.90;;;;;;5014594;28;20387;-75
2023/03/01 04:41:09;;;;;;;20.35;16.75;;;-0.70;99.90;;;;;;5032514;28;20135;-75
2023/03/01 04:43:36;;;;;;;21.33;16.33;;;-0.10;99.90;;;;;;5032713;28;20037;-75
2023/03/01 04:46:03;;;;;;;17.90;15.52;;;0.00;99.90;;;;;;5032132;28;20049;-75
2023/03/01 04:48:31;;;;;;;18.58;16.52;;;-1.00;99.90;;;;;;5015563;28;20049;-75
2023/03/01 04:50:58;;;;;;;19.67;16.08;;;-0.90;99.90;;;;;;5036055;28;20128;-75
2023/03/01 04:53:24;;;;;;;18.35;15.57;;;-0.90;99.90;;;;;;5035797;28;20068;-75
2023/03/01 04:55:50;;;;;;;18.98;15.32;;;-0.90;99.90;;;;;;5035982;28;20511;-75
2023/03/01 04:58:16;;;;;;;17.35;14.82;;;-0.10;99.90;;;;;;5018475;28;20188;-75
2023/03/01 05:00:42;;;;;;;16.63;14.73;;;0.00;99.90;;;;;;5035650;28;20080;-76
2023/03/01 05:03:08;;;;;;;20.65;15.48;;;-0.50;99.90;;;;;;5035947;28;20088;-75
2023/03/01 05:05:38;;;;;;;16.83;15.02;;;-0.70;99.90;;;;;;5018184;28;20125;-75
2023/03/01 05:08:06;;;;;;;20.48;15.20;;;-0.80;99.90;;;;;;5035677;28;20041;-75
2023/03/01 05:10:35;;;;;;;20.20;16.13;;;-0.90;99.90;;;;;;5036273;28;20065;-76
2023/03/01 05:13:02;;;;;;;21.98;17.08;;;-0.60;99.90;;;;;;5036243;28;20067;-75
2023/03/01 05:15:29;;;;;;;19.85;16.52;;;0.70;99.90;;;;;;5035115;28;20563;-75
2023/03/01 05:17:58;;;;;;;19.95;16.00;;;-1.10;99.90;;;;;;5017641;28;20491;-75
2023/03/01 05:20:24;;;;;;;20.08;16.13;;;-1.30;99.90;;;;;;5035459;28;20625;-75
2023/03/01 05:22:56;;;;;;;20.92;16.38;;;0.40;99.90;;;;;;5018531;28;20445;-75
2023/03/01 05:25:22;;;;;;;18.88;15.35;;;-0.60;99.90;;;;;;5035751;28;20096;-75
2023/03/01 05:27:48;;;;;;;13.63;12.13;;;-1.30;99.90;;;;;;5035188;28;20041;-75
2023/03/01 05:30:14;;;;;;;18.20;13.25;;;-0.60;99.90;;;;;;5034938;28;20037;-75
2023/03/01 05:32:43;;;;;;;20.38;14.05;;;-1.20;99.90;;;;;;5035124;28;20124;-75
2023/03/01 05:35:12;;;;;;;14.07;12.48;;;-0.10;99.90;;;;;;5017378;28;20134;-75
2023/03/01 05:37:43;;;;;;;15.63;13.13;;;-1.10;99.90;;;;;;5017236;28;20083;-75
2023/03/01 05:40:17;;;;;;;18.58;13.77;;;0.20;99.90;;;;;;5034960;28;20045;-75
2023/03/01 05:42:45;;;;;;;15.23;12.85;;;-0.90;99.90;;;;;;5035353;28;20132;-75
2023/03/01 05:45:12;;;;;;;16.67;14.15;;;-0.80;99.90;;;;;;5034684;28;20099;-75
2023/03/01 05:47:43;;;;;;;15.93;12.50;;;-0.70;99.90;;;;;;5035025;28;20046;-75
2023/03/01 05:50:20;;;;;;;15.50;13.02;;;-0.70;99.90;;;;;;5034680;28;20120;-75
2023/03/01 05:52:49;;;;;;;17.23;13.65;;;-0.60;99.90;;;;;;5034517;28;20088;-75
2023/03/01 05:55:17;;;;;;;16.17;14.50;;;-0.10;99.90;;;;;;5034457;28;20107;-75
2023/03/01 05:57:42;;;;;;;16.17;14.45;;;0.40;99.90;;;;;;5035075;28;20053;-75
2023/03/01 06:00:10;;;;;;;15.98;13.63;;;0.20;99.90;;;;;;5034501;28;20452;-75
2023/03/01 06:02:36;;;;;;;17.52;14.52;;;-0.60;99.90;;;;;;5034963;28;20076;-75
2023/03/01 06:05:02;;;;;;;15.55;13.02;;;1.50;99.90;;;;;;5034580;28;20048;-75
2023/03/01 06:07:28;;;;;;;17.63;15.27;;;-0.60;99.90;;;;;;5016849;28;20045;-75
2023/03/01 06:09:53;;;;;;;18.88;15.80;;;0.60;99.90;;;;;;5034476;28;20387;-75
2023/03/01 06:12:19;;;;;;;15.95;14.38;;;0.00;99.90;;;;;;5033904;28;20131;-75
2023/03/01 06:14:47;;;;;;;16.05;12.88;;;-0.50;99.90;;;;;;5034788;28;20049;-75
2023/03/01 06:17:13;;;;;;;13.55;12.15;;;-0.80;99.90;;;;;;5034054;28;20458;-75
2023/03/01 06:19:38;;;;;;;14.65;13.10;;;-0.80;99.90;;;;;;5033978;28;20041;-74
2023/03/01 06:22:04;;;;;;;14.27;11.90;;;-0.10;99.90;;;;;;5016755;28;20041;-75
2023/03/01 06:24:30;;;;;;;17.02;13.70;;;0.90;99.90;;;;;;5016257;28;20076;-75
2023/03/01 06:26:56;;;;;;;14.63;12.45;;;-0.70;99.90;;;;;;5033799;28;20137;-74
2023/03/01 06:29:22;;;;;;;13.60;12.30;;;-0.60;99.90;;;;;;5016812;28;20053;-75
2023/03/01 06:31:48;;;;;;;13.95;11.32;;;-0.80;99.90;;;;;;5034275;28;20049;-75
2023/03/01 06:34:14;;;;;;;13.80;11.50;;;0.10;99.90;;;;;;5033595;28;20045;-75
2023/03/01 06:36:40;;;;;;;13.48;12.15;;;-1.00;99.90;;;;;;5033353;28;20049;-75
2023/03/01 06:39:06;;;;;;;15.32;13.73;;;-1.10;99.90;;;;;;5012849;28;20605;-74
2023/03/01 06:41:33;;;;;;;15.45;12.60;;;-1.10;99.90;;;;;;5013737;28;20103;-76
2023/03/01 06:43:59;;;;;;;16.52;13.65;;;-1.20;99.90;;;;;;5014017;28;20049;-72
2023/03/01 06:46:25;;;;;;;15.77;13.65;;;-0.30;99.90;;;;;;5013393;28;20050;-75
2023/03/01 06:48:51;;;;;;;13.48;12.18;;;-1.10;99.90;;;;;;5013780;28;20085;-76
2023/03/01 06:51:16;;;;;;;17.15;13.30;;;-1.00;99.90;;;;;;5012859;28;20125;-76
2023/03/01 06:53:42;;;;;;;17.23;12.38;;;-0.80;99.90;;;;;;5013530;28;20050;-75
2023/03/01 06:56:08;;;;;;;14.88;13.00;;;0.90;99.90;;;;;;5014240;28;20048;-75
2023/03/01 06:58:33;;;;;;;17.05;12.55;;;-0.70;99.90;;;;;;5013053;28;20056;-76
2023/03/01 07:00:59;;;;;;;14.35;12.85;;;-0.70;99.90;;;;;;5013886;28;20042;-76
2023/03/01 07:03:25;;;;;;;15.25;13.13;;;0.10;99.90;;;;;;5014315;28;20422;-76
2023/03/01 07:05:52;;;;;;;16.77;12.90;;;-0.50;99.90;;;;;;5013910;28;20491;-76
2023/03/01 07:08:18;;;;;;;14.57;12.25;;;-0.50;99.90;;;;;;5014318;28;20124;-76
2023/03/01 07:10:44;;;;;;;15.63;13.70;;;0.80;99.90;;;;;;5013836;28;20084;-76
2023/03/01 07:13:10;;;;;;;16.77;14.10;;;1.00;99.90;;;;;;5013708;28;20050;-76
2023/03/01 07:15:36;;;;;;;19.17;14.52;;;-0.20;99.90;;;;;;5013520;28;20333;-77
2023/03/01 07:18:02;;;;;;;15.50;13.82;;;-0.10;99.90;;;;;;5012142;28;20049;-76
2023/03/01 07:20:27;;;;;;;17.20;14.77;;;-0.10;99.90;;;;;;5012834;28;20045;-76
2023/03/01 07:22:54;;;;;;;14.43;13.00;;;0.00;99.90;;;;;;5012320;28;20042;-76
2023/03/01 07:25:20;;;;;;;16.30;14.55;;;0.10;99.90;;;;;;5013207;28;20088;-75
2023/03/01 07:27:51;;;;;;;15.32;13.73;;;1.30;99.90;;;;;;5012382;28;20061;-75
2023/03/01 07:30:17;;;;;;;16.33;14.75;;;0.20;99.90;;;;;;5013494;28;20133;-77
2023/03/01 07:32:43;;;;;;;15.98;14.13;;;0.30;99.90;;;;;;5012977;28;20156;-74
2023/03/01 07:35:08;;;;;;;20.83;14.65;;;0.40;99.90;;;;;;5013098;28;20073;-76
2023/03/01 07:37:34;;;;;;;20.05;15.68;;;0.40;99.90;;;;;;5017688;28;20103;-76
2023/03/01 07:40:00;;;;;;;15.35;13.70;;;1.10;99.90;;;;;;5032936;28;20081;-77
2023/03/01 07:42:25;;;;;;;15.18;13.68;;;0.60;99.90;;;;;;5033093;28;20139;-76
2023/03/01 07:44:51;;;;;;;15.93;14.02;;;0.60;99.90;;;;;;5033126;28;20050;-77
2023/03/01 07:47:17;;;;;;;16.17;13.48;;;0.90;99.90;;;;;;5032695;28;20049;-77
2023/03/01 07:49:42;;;;;;;14.38;12.98;;;0.80;99.90;;;;;;4999206;28;20127;-75
2023/03/01 07:52:11;;;;;;;14.25;12.77;;;0.90;99.90;;;;;;5015477;28;20049;-76
2023/03/01 07:54:37;;;;;;;14.52;13.10;;;1.10;99.90;;;;;;5032608;28;20045;-76
2023/03/01 07:57:03;;;;;;;15.07;13.50;;;1.20;99.90;;;;;;5014976;28;20085;-76
2023/03/01 07:59:29;;;;;;;15.10;13.70;;;1.40;99.90;;;;;;5032732;28;20514;-75
2023/03/01 08:01:56;;;;;;;13.38;12.05;;;2.50;99.90;;;;;;4998159;28;20119;-76
2023/03/01 08:04:24;;;;;;;16.25;13.68;;;1.80;99.90;;;;;;5032261;28;20037;-76
2023/03/01 08:06:51;;;;;;;14.30;12.52;;;1.70;99.90;;;;;;5032445;28;20049;-76
2023/03/01 08:09:16;;;;;;;14.75;13.32;;;1.60;99.90;;;;;;5032299;28;20056;-77
2023/03/01 08:11:42;;;;;;;13.23;11.73;;;1.60;99.90;;;;;;5032597;28;20046;-75
2023/03/01 08:14:08;;;;;;;12.43;11.20;;;1.90;99.90;;;;;;5032313;28;20063;-76
2023/03/01 08:16:35;;;;;;;13.18;11.77;;;2.00;99.90;;;;;;5015120;28;20041;-77
2023/03/01 08:19:08;;;;;;;14.77;13.18;;;1.80;99.90;;;;;;5032025;28;20513;-77
2023/03/01 08:21:34;;;;;;;14.40;13.00;;;2.00;99.90;;;;;;5032190;28;20459;-75
2023/03/01 08:24:01;;;;;;;16.15;13.75;;;1.70;99.90;;;;;;5033790;28;20075;-75
2023/03/01 08:26:27;;;;;;;13.65;12.32;;;1.80;99.90;;;;;;5036280;28;20049;-75
2023/03/01 08:28:53;;;;;;;16.95;14.02;;;1.90;99.90;;;;;;5018899;28;20064;-75
2023/03/01 08:31:24;;;;;;;19.80;17.67;;;1.80;99.90;;;;;;5036668;28;20110;-76
2023/03/01 08:33:56;;;;;;;24.08;18.38;;;1.90;99.90;;;;;;5036019;28;20045;-75
2023/03/01 08:36:24;;;;;;;21.23;17.98;;;1.90;99.90;;;;;;5035987;28;20044;-74
2023/03/01 08:38:50;;;;;;;22.08;16.35;;;1.80;99.90;;;;;;5036102;28;20064;-74
2023/03/01 08:41:17;;;;;;;19.92;17.67;;;1.70;99.90;;;;;;5036273;28;20386;-74
2023/03/01 08:43:42;;;;;;;23.33;19.38;;;1.70;99.90;;;;;;5018512;28;20060;-75
2023/03/01 08:46:08;;;;;;;24.63;20.33;;;1.70;99.90;;;;;;5035956;28;20045;-74
2023/03/01 08:48:34;;;;;;;40.10;21.67;;;1.90;99.90;;;;;;5035641;28;20049;-76
2023/03/01 08:51:12;;;;;;;56.97;19.98;;;2.00;99.90;;;;;;5018229;28;20041;-76
2023/03/01 08:53:38;;;;;;;81.97;21.27;;;2.20;99.90;;;;;;5035763;28;20047;-71
2023/03/01 08:56:04;;;;;;;66.00;19.45;;;2.70;99.90;;;;;;5001748;28;20050;-77
2023/03/01 08:58:30;;;;;;;62.38;20.92;;;2.50;99.90;;;;;;5018039;28;20088;-78
2023/03/01 09:00:58;;;;;;;97.82;24.60;;;2.60;99.90;;;;;;5035624;28;20053;-78
2023/03/01 09:03:25;;;;;;;83.22;22.58;;;2.70;99.90;;;;;;5035935;28;20080;-78
2023/03/01 09:05:52;;;;;;;41.72;18.45;;;2.60;99.90;;;;;;5001237;28;20049;-78
2023/03/01 09:08:18;;;;;;;74.20;21.45;;;2.80;99.90;;;;;;5034855;28;20087;-76
2023/03/01 09:10:44;;;;;;;52.03;21.48;;;2.90;99.90;;;;;;5035434;28;20057;-77
2023/03/01 09:13:09;;;;;;;45.28;18.65;;;2.90;99.90;;;;;;5035458;28;20075;-75
2023/03/01 09:15:37;;;;;;;114.82;25.58;;;3.30;99.90;;;;;;5035233;28;20514;-76
2023/03/01 09:18:04;;;;;;;114.88;24.70;;;3.10;99.90;;;;;;5017299;28;20458;-76
2023/03/01 09:20:31;;;;;;;61.17;20.73;;;3.20;99.90;;;;;;5034916;28;20505;-76
2023/03/01 09:22:57;;;;;;;49.78;16.65;;;3.40;99.90;;;;;;5035277;28;20132;-77
2023/03/01 09:25:23;;;;;;;123.53;24.35;;;3.60;99.90;;;;;;5035236;28;20470;-76
2023/03/01 09:27:53;;;;;;;209.27;36.28;;;3.70;99.90;;;;;;5035206;28;20049;-77
2023/03/01 09:30:20;;;;;;;88.38;21.05;;;3.50;99.90;;;;;;5035577;28;20049;-77
2023/03/01 09:32:45;;;;;;;192.23;30.42;;;3.50;99.90;;;;;;5035462;28;20132;-75
2023/03/01 09:35:11;;;;;;;97.43;21.75;;;3.60;99.90;;;;;;5016843;28;20073;-77
2023/03/01 09:37:38;;;;;;;214.48;31.00;;;3.80;99.90;;;;;;5035436;28;20088;-77
2023/03/01 09:40:06;;;;;;;121.82;22.73;;;3.70;99.90;;;;;;5035541;28;20123;-76
2023/03/01 09:42:45;;;;;;;173.45;25.80;;;3.70;99.90;;;;;;5034633;28;20128;-75
2023/03/01 09:45:22;;;;;;;87.30;19.15;;;3.60;99.90;;;;;;5035258;28;20041;-76
2023/03/01 09:47:48;;;;;;;137.05;24.30;;;3.60;99.90;;;;;;5034988;28;20084;-76
2023/03/01 09:50:19;;;;;;;109.95;20.92;;;3.80;99.90;;;;;;5001507;28;20128;-76
2023/03/01 09:52:54;;;;;;;129.98;21.13;;;3.70;99.90;;;;;;5035269;28;20088;-77
2023/03/01 09:55:31;;;;;;;55.70;16.05;;;3.80;99.90;;;;;;5035040;28;20184;-75
2023/03/01 09:58:23;;;;;;;40.25;15.25;;;3.90;99.90;;;;;;5034420;28;20119;-77
2023/03/01 10:00:50;;;;;;;52.53;16.02;;;4.00;99.90;;;;;;5034643;28;20045;-77
2023/03/01 10:03:31;;;;;;;47.20;18.17;;;4.40;99.90;;;;;;5034275;28;20160;-77
2023/03/01 10:06:00;;;;;;;34.92;22.83;;;4.90;99.90;;;;;;5017337;28;20042;-77
2023/03/01 10:08:29;;;;;;;43.60;22.27;;;5.10;99.90;;;;;;5035096;28;20046;-77
2023/03/01 10:10:55;;;;;;;39.45;20.80;;;5.50;99.90;;;;;;5035238;28;20048;-77
2023/03/01 10:13:23;;;;;;;28.52;20.88;;;6.10;99.90;;;;;;5001257;28;20052;-78
2023/03/01 10:16:20;;;;;;;32.92;22.92;;;7.20;99.90;;;;;;5034470;28;20447;-78
2023/03/01 10:18:53;;;;;;;32.78;22.80;;;8.80;99.90;;;;;;5024599;28;20144;-77
2023/03/01 10:21:20;;;;;;;29.48;20.83;;;10.20;99.90;;;;;;5034658;28;20046;-78
2023/03/01 10:23:49;;;;;;;30.10;22.13;;;11.40;99.90;;;;;;5034305;28;20049;-79
2023/03/01 10:26:26;;;;;;;25.38;20.20;;;11.60;99.90;;;;;;5034689;28;20080;-78
2023/03/01 10:29:07;;;;;;;32.35;21.92;;;12.20;99.90;;;;;;5034289;28;20049;-78
2023/03/01 10:31:53;;;;;;;26.60;19.45;;;12.60;99.90;;;;;;5034212;28;20076;-77
2023/03/01 10:34:29;;;;;;;31.05;21.13;;;13.00;99.90;;;;;;5033810;28;20111;-79
2023/03/01 10:37:21;;;;;;;22.65;18.45;;;12.70;99.90;;;;;;5034766;28;20049;-79
2023/03/01 10:40:09;;;;;;;25.20;19.02;;;13.20;99.90;;;;;;5034631;28;20179;-79
2023/03/01 10:42:46;;;;;;;23.95;18.30;;;13.70;99.70;;;;;;5034455;28;20085;-78
2023/03/01 10:45:38;;;;;;;25.10;19.25;;;13.50;98.40;;;;;;5016242;28;20052;-79
2023/03/01 10:48:26;;;;;;;23.02;17.88;;;13.20;97.70;;;;;;5033128;28;20097;-79
2023/03/01 10:51:17;;;;;;;24.55;17.58;;;13.20;99.40;;;;;;5033615;28;20151;-79
2023/03/01 10:53:49;;;;;;;26.25;16.98;;;12.80;96.40;;;;;;5033940;28;20364;-78
2023/03/01 10:56:15;;;;;;;21.50;16.42;;;12.00;99.30;;;;;;5015866;28;20497;-79
2023/03/01 10:59:00;;;;;;;23.25;16.90;;;10.90;99.90;;;;;;5033558;28;20095;-78
2023/03/01 11:01:35;;;;;;;17.83;13.10;;;9.50;99.90;;;;;;5033462;28;20084;-79
2023/03/01 11:04:06;;;;;;;16.75;12.70;;;8.50;99.90;;;;;;5033920;28;20115;-79
2023/03/01 11:06:37;;;;;;;16.77;13.77;;;8.00;99.90;;;;;;5033467;28;20486;-79
2023/03/01 11:09:21;;;;;;;18.30;14.65;;;7.60;99.90;;;;;;5033022;28;20420;-78
2023/03/01 11:11:53;;;;;;;14.15;11.75;;;7.00;99.90;;;;;;5033234;28;20118;-76
2023/03/01 11:14:22;;;;;;;17.35;12.38;;;7.00;99.90;;;;;;5033493;28;20043;-79
2023/03/01 11:16:58;;;;;;;12.80;10.80;;;6.90;99.90;;;;;;5033436;28;20099;-78
2023/03/01 11:19:24;;;;;;;13.57;10.85;;;6.70;99.90;;;;;;5033170;28;20091;-77
2023/03/01 11:22:04;;;;;;;12.98;10.00;;;6.70;99.90;;;;;;5015569;28;20045;-78
2023/03/01 11:24:43;;;;;;;13.90;10.20;;;6.70;99.90;;;;;;5033108;28;20041;-79
2023/03/01 11:27:34;;;;;;;15.93;11.68;;;6.80;99.90;;;;;;5033258;28;20056;-79
2023/03/01 11:30:12;;;;;;;11.95;9.57;;;6.80;99.90;;;;;;5021144;28;20061;-78
2023/03/01 11:32:48;;;;;;;15.02;11.77;;;6.70;99.90;;;;;;5016172;28;20071;-77
2023/03/01 11:35:21;;;;;;;17.17;12.15;;;6.70;99.90;;;;;;5032907;28;20072;-78
2023/03/01 11:38:01;;;;;;;20.27;14.07;;;6.70;99.90;;;;;;5015195;28;20046;-78
2023/03/01 11:40:46;;;;;;;13.20;10.98;;;6.70;99.90;;;;;;5032958;28;20421;-79
2023/03/01 11:44:01;;;;;;;16.52;11.70;;;6.60;99.90;;;;;;5033236;28;20051;-79
2023/03/01 11:46:32;;;;;;;20.35;11.85;;;6.60;99.90;;;;;;4980881;28;20053;-78
2023/03/01 11:49:13;;;;;;;16.95;13.68;;;6.70;99.90;;;;;;5033136;28;20045;-79
2023/03/01 11:51:55;;;;;;;17.00;13.00;;;6.70;99.90;;;;;;5032634;28;20053;-78
2023/03/01 11:54:53;;;;;;;15.65;12.73;;;6.80;99.90;;;;;;5032601;28;20056;-78
2023/03/01 11:57:41;;;;;;;22.58;13.93;;;6.80;99.90;;;;;;5032535;28;20091;-78
2023/03/01 12:00:25;;;;;;;16.20;12.80;;;6.80;99.90;;;;;;5032662;28;20247;-78
2023/03/01 12:03:02;;;;;;;17.08;12.82;;;6.80;99.90;;;;;;5033121;28;20045;-78
2023/03/01 12:05:49;;;;;;;13.95;11.40;;;6.90;99.90;;;;;;5032475;28;20042;-78
2023/03/01 12:08:28;;;;;;;14.82;12.48;;;6.90;99.90;;;;;;5032401;28;20548;-79
2023/03/01 12:11:03;;;;;;;15.40;11.98;;;6.90;99.90;;;;;;5032922;28;20062;-79
2023/03/01 12:13:53;;;;;;;16.75;12.25;;;7.00;99.90;;;;;;5032996;28;20045;-79
2023/03/01 12:16:33;;;;;;;13.93;12.40;;;7.00;99.90;;;;;;5032243;28;20470;-78
2023/03/01 12:19:08;;;;;;;17.58;11.77;;;7.00;99.90;;;;;;5032715;28;20041;-79
2023/03/01 12:22:12;;;;;;;17.33;13.07;;;7.00;99.90;;;;;;5032308;28;20085;-78
2023/03/01 12:25:22;;;;;;;18.08;12.82;;;7.10;99.90;;;;;;5032341;28;20041;-79
2023/03/01 12:28:07;;;;;;;17.38;13.05;;;7.10;99.90;;;;;;5032868;28;20083;-79
2023/03/01 12:30:41;;;;;;;16.55;12.48;;;7.00;99.60;;;;;;5015167;28;20053;-78
2023/03/01 12:33:25;;;;;;;18.70;13.55;;;7.10;99.90;;;;;;5014777;28;20057;-78
2023/03/01 12:36:00;;;;;;;17.90;12.73;;;7.10;99.90;;;;;;5032045;28;20123;-79
2023/03/01 12:38:37;;;;;;;17.30;12.68;;;7.20;99.90;;;;;;5032140;28;20053;-78
2023/03/01 12:41:28;;;;;;;18.98;12.25;;;7.20;99.60;;;;;;5032375;28;20128;-79
2023/03/01 12:44:02;;;;;;;18.08;13.45;;;7.20;99.60;;;;;;5032732;28;20411;-79
2023/03/01 12:46:53;;;;;;;19.02;12.55;;;7.10;99.30;;;;;;5032044;28;20045;-77
2023/03/01 12:49:21;;;;;;;16.00;11.65;;;7.20;99.90;;;;;;5032305;28;20049;-79
2023/03/01 12:52:23;;;;;;;14.23;12.63;;;7.30;99.90;;;;;;5031931;28;20116;-79